Aérodrome :
LOGIN :

S'inscrire | Disclaimer

   EN    FR    IT 

 










Légende :    VFR   VFR Marginal   IFR   IFR Intensif   IFR Très Intensif
Visi : 
Plafond : 
>= 8 km
>= 3000ft
5 à 8 km
1000 à 3000 ft
1500m à 5 km
500 à 1000 ft
800 à 1500m
200 à 500 ft
< 800m
< 200 ft
Symboles :   Orages  Brouillard  Fortes neiges  Fortes précipitations  Vent > 20 kt
SIGMETs :   Divers  Orages  Givrage  Turbulence  Onde Orograph.  Cendres Volcan.







- Altitude de l'aérodrome : 231 ft
- Code IATA : WTN


EGXW - RAF Waddington

DERNIER METAR :
  • 160650Z 23010KT 9999 -RA FEW003 OVC080 16/15 Q1009 BLU

METARs EXPIRÉS :
  • 160550Z 24006KT 8000 RA FEW003 OVC070 15/15 Q1009 RERA BLU
  • 160450Z 26012KT 2500 +RA FEW004 OVC010 15/15 Q1009 YLO1

TAF TAF EGXW
Valide du 16 à 06h jusqu'au 17 à 00h UTC


160404Z 1606/1624 22012KT 9999 BKN045
TEMPO 1606/1611 5000 RA BKN020
PROB40
TEMPO 1607/1611 BKN010
PROB40
TEMPO 1611/1613 SCT020
Pas de NOTAMs connus pour ce terrain.



MET'MAP, la Météo Aéronautique d'un coup d'oeil ! - Copyright ORBIFLY Décembre 2007 - Disclaimer

ORBIFLY MET'MAP TEAM :

Programmation & Développement : Alexandra Zaïnal
Conception & Développement : Baudouin d'Aumeries
Co-Programmation & Développement : Marc-Olivier Méhu
Soutien technique & logistique : Manuel Goepfert

Contact : metmap@orbifly.com




SOURCES & CREDITS :

   NOAA